createdAt,value
2022-11-03T00:00:04.330Z,1020.90
2022-11-03T00:02:15.753Z,1020.83
2022-11-03T00:04:27.698Z,1020.89
2022-11-03T00:06:39.792Z,1020.85
2022-11-03T00:08:51.857Z,1020.86
2022-11-03T00:11:03.928Z,1020.86
2022-11-03T00:13:16.010Z,1020.81
2022-11-03T00:15:28.089Z,1020.80
2022-11-03T00:17:40.203Z,1020.73
2022-11-03T00:19:52.263Z,1020.69
2022-11-03T00:22:04.346Z,1020.73
2022-11-03T00:24:16.433Z,1020.71
2022-11-03T00:26:28.512Z,1020.72
2022-11-03T00:28:40.625Z,1020.65
2022-11-03T00:30:52.668Z,1020.62
2022-11-03T00:33:06.048Z,1020.55
2022-11-03T00:35:17.834Z,1020.49
2022-11-03T00:37:29.918Z,1020.47
2022-11-03T00:39:42.025Z,1020.43
2022-11-03T00:41:54.066Z,1020.43
2022-11-03T00:44:06.159Z,1020.43
2022-11-03T00:46:18.236Z,1020.39
2022-11-03T00:48:30.341Z,1020.41
2022-11-03T00:50:43.365Z,1020.44
2022-11-03T00:52:54.790Z,1020.39
2022-11-03T00:55:06.862Z,1020.37
2022-11-03T00:57:18.975Z,1020.29
2022-11-03T00:59:31.045Z,1020.30
2022-11-03T01:01:47.185Z,1020.38
2022-11-03T01:03:55.206Z,1020.38
2022-11-03T01:06:07.292Z,1020.38
2022-11-03T01:08:20.447Z,1020.40
2022-11-03T01:10:31.458Z,1020.34
2022-11-03T01:12:43.557Z,1020.38
2022-11-03T01:14:56.609Z,1020.33
2022-11-03T01:17:08.701Z,1020.35
2022-11-03T01:19:20.774Z,1020.47
2022-11-03T01:21:32.848Z,1020.40
2022-11-03T01:23:46.797Z,1020.35
2022-11-03T01:25:58.007Z,1020.33
2022-11-03T01:28:10.099Z,1020.41
2022-11-03T01:30:22.208Z,1020.39
2022-11-03T01:32:34.291Z,1020.30
2022-11-03T01:34:46.412Z,1020.20
2022-11-03T01:36:58.441Z,1020.16
2022-11-03T01:39:10.526Z,1020.07
2022-11-03T01:41:22.609Z,1020.06
2022-11-03T01:43:34.684Z,1020.06
2022-11-03T01:45:47.797Z,1020.02
2022-11-03T01:47:59.858Z,1020.01
2022-11-03T01:50:11.927Z,1020.00
2022-11-03T01:52:25.002Z,1019.99
2022-11-03T01:54:37.087Z,1019.96
2022-11-03T01:56:49.194Z,1019.95
2022-11-03T01:59:01.260Z,1019.95
2022-11-03T02:01:13.400Z,1019.98
2022-11-03T02:03:25.418Z,1019.98
2022-11-03T02:05:37.547Z,1019.97
2022-11-03T02:07:49.658Z,1020.01
2022-11-03T02:10:01.722Z,1020.04
2022-11-03T02:12:13.796Z,1020.00
2022-11-03T02:14:25.890Z,1020.00
2022-11-03T02:16:37.961Z,1020.00
2022-11-03T02:18:50.060Z,1020.00
2022-11-03T02:21:02.125Z,1019.98
2022-11-03T02:23:14.209Z,1019.93
2022-11-03T02:25:26.301Z,1019.91
2022-11-03T02:27:38.388Z,1019.93
2022-11-03T02:29:50.493Z,1019.89
2022-11-03T02:32:02.574Z,1019.84
2022-11-03T02:34:14.657Z,1019.89
2022-11-03T02:36:26.745Z,1019.83
2022-11-03T02:38:38.814Z,1019.90
2022-11-03T02:40:50.919Z,1019.87
2022-11-03T02:43:03.071Z,1019.91
2022-11-03T02:45:17.492Z,1019.81
2022-11-03T02:47:27.144Z,1019.81
2022-11-03T02:49:39.233Z,1019.83
2022-11-03T02:51:52.302Z,1019.71
2022-11-03T02:54:04.396Z,1019.73
2022-11-03T02:56:16.466Z,1019.72
2022-11-03T02:58:28.546Z,1019.70
2022-11-03T03:00:40.650Z,1019.69
2022-11-03T03:02:52.792Z,1019.68
2022-11-03T03:05:04.845Z,1019.65
2022-11-03T03:07:16.930Z,1019.64
2022-11-03T03:09:29.015Z,1019.60
2022-11-03T03:11:42.093Z,1019.60
2022-11-03T03:13:54.182Z,1019.57
2022-11-03T03:16:06.251Z,1019.50
2022-11-03T03:18:18.340Z,1019.51
2022-11-03T03:20:30.417Z,1019.48
2022-11-03T03:22:44.331Z,1019.53
2022-11-03T03:24:55.593Z,1019.53
2022-11-03T03:27:07.653Z,1019.46
2022-11-03T03:29:19.727Z,1019.45
2022-11-03T03:31:31.810Z,1019.42
2022-11-03T03:33:47.506Z,1019.45
2022-11-03T03:35:55.999Z,1019.39
2022-11-03T03:38:08.323Z,1019.35
2022-11-03T03:40:20.181Z,1019.38
2022-11-03T03:42:32.261Z,1019.38
2022-11-03T03:44:44.342Z,1019.37
2022-11-03T03:46:56.460Z,1019.34
2022-11-03T03:49:08.502Z,1019.35
2022-11-03T03:51:20.587Z,1019.32
2022-11-03T03:53:32.663Z,1019.37
2022-11-03T03:55:44.743Z,1019.33
2022-11-03T03:57:59.491Z,1019.38
2022-11-03T04:00:08.910Z,1019.31
2022-11-03T04:02:21.048Z,1019.32
2022-11-03T04:04:34.090Z,1019.27
2022-11-03T04:06:46.160Z,1019.28
2022-11-03T04:08:58.324Z,1019.24
2022-11-03T04:11:10.373Z,1019.22
2022-11-03T04:13:22.470Z,1019.20
2022-11-03T04:15:34.528Z,1019.20
2022-11-03T04:19:58.726Z,1019.15
2022-11-03T04:22:10.770Z,1019.14
2022-11-03T04:24:22.852Z,1019.13
2022-11-03T04:26:34.923Z,1019.05
2022-11-03T04:28:47.003Z,1019.01
2022-11-03T04:30:59.318Z,1019.01
2022-11-03T04:33:11.232Z,1018.96
2022-11-03T04:35:23.273Z,1018.97
2022-11-03T04:37:35.347Z,1018.95
2022-11-03T04:39:47.428Z,1018.92
2022-11-03T04:41:59.527Z,1018.94
2022-11-03T04:44:11.597Z,1018.92
2022-11-03T04:46:23.680Z,1018.83
2022-11-03T04:48:35.761Z,1018.82
2022-11-03T04:50:47.831Z,1018.81
2022-11-03T04:53:00.108Z,1018.81
2022-11-03T05:15:41.623Z,1018.41
2022-11-03T05:17:53.700Z,1018.35
2022-11-03T05:20:05.799Z,1018.29
2022-11-03T05:22:17.882Z,1018.31
2022-11-03T05:24:29.960Z,1018.27
2022-11-03T05:26:42.067Z,1018.29
2022-11-03T05:28:54.194Z,1018.26
2022-11-03T05:31:06.205Z,1018.25
2022-11-03T05:33:18.285Z,1018.26
2022-11-03T05:35:30.407Z,1018.33
2022-11-03T05:37:42.502Z,1018.35
2022-11-03T05:39:54.555Z,1018.41
2022-11-03T05:42:07.634Z,1018.40
2022-11-03T05:44:19.696Z,1018.41
2022-11-03T05:46:31.795Z,1018.40
2022-11-03T05:48:44.737Z,1018.39
2022-11-03T05:50:57.239Z,1018.41
2022-11-03T05:53:09.339Z,1018.39
2022-11-03T05:55:21.406Z,1018.43
2022-11-03T05:57:33.580Z,1018.39
2022-11-03T05:59:45.599Z,1018.43
2022-11-03T06:01:57.762Z,1018.45
2022-11-03T06:04:10.584Z,1018.44
2022-11-03T06:06:24.209Z,1018.46
2022-11-03T06:08:34.919Z,1018.43
2022-11-03T06:10:47.053Z,1018.43
2022-11-03T06:12:59.076Z,1018.49
2022-11-03T06:15:11.166Z,1018.44
2022-11-03T06:17:23.253Z,1018.40
2022-11-03T06:19:35.314Z,1018.36
2022-11-03T06:21:50.259Z,1018.32
2022-11-03T06:24:10.235Z,1018.33
2022-11-03T06:26:22.299Z,1018.31
2022-11-03T06:28:34.386Z,1018.24
2022-11-03T06:30:46.469Z,1018.20
2022-11-03T06:32:58.554Z,1018.24
2022-11-03T06:35:10.617Z,1018.24
2022-11-03T06:37:22.703Z,1018.31
2022-11-03T06:39:34.790Z,1018.28
2022-11-03T06:41:47.712Z,1018.25
2022-11-03T06:43:59.950Z,1018.32
2022-11-03T06:46:12.023Z,1018.33
2022-11-03T06:48:24.110Z,1018.29
2022-11-03T06:50:39.765Z,1018.24
2022-11-03T06:55:00.403Z,1018.22
2022-11-03T06:57:13.437Z,1018.23
2022-11-03T06:59:25.553Z,1018.19
2022-11-03T07:01:37.714Z,1018.21
2022-11-03T07:03:49.751Z,1018.22
2022-11-03T07:06:01.849Z,1018.25
2022-11-03T07:08:13.891Z,1018.22
2022-11-03T07:10:25.987Z,1018.21
2022-11-03T07:12:38.074Z,1018.17
2022-11-03T07:14:51.158Z,1018.11
2022-11-03T07:17:03.263Z,1018.08
2022-11-03T07:19:15.393Z,1018.10
2022-11-03T07:21:27.430Z,1018.13
2022-11-03T07:23:42.123Z,1018.07
2022-11-03T07:25:51.661Z,1018.04
2022-11-03T07:28:03.143Z,1017.97
2022-11-03T07:30:15.155Z,1017.95
2022-11-03T07:32:27.269Z,1017.93
2022-11-03T07:34:39.345Z,1017.89
2022-11-03T07:36:55.718Z,1017.89
2022-11-03T07:39:04.600Z,1017.93
2022-11-03T07:41:16.606Z,1017.86
2022-11-03T07:43:28.681Z,1017.88
2022-11-03T07:45:40.764Z,1017.86
2022-11-03T07:47:52.841Z,1017.81
2022-11-03T07:50:05.434Z,1017.85
2022-11-03T07:52:17.015Z,1017.80
2022-11-03T07:54:29.105Z,1017.79
2022-11-03T07:56:41.179Z,1017.72
2022-11-03T07:58:53.279Z,1017.65
2022-11-03T08:01:05.690Z,1017.60
2022-11-03T08:03:18.591Z,1017.60
2022-11-03T08:05:29.837Z,1017.58
2022-11-03T08:07:41.924Z,1017.60
2022-11-03T08:09:54.007Z,1017.47
2022-11-03T08:12:06.140Z,1017.44
2022-11-03T08:14:18.205Z,1017.45
2022-11-03T08:16:30.283Z,1017.38
2022-11-03T08:18:42.373Z,1017.35
2022-11-03T08:20:54.458Z,1017.28
2022-11-03T08:23:24.617Z,1017.26
2022-11-03T08:24:08.350Z,1017.27
2022-11-03T08:26:18.624Z,1017.23
2022-11-03T08:28:31.243Z,1017.16
2022-11-03T08:30:42.790Z,1017.22
2022-11-03T08:32:54.908Z,1017.21
2022-11-03T08:35:06.955Z,1017.15
2022-11-03T08:37:19.051Z,1017.09
2022-11-03T08:39:31.142Z,1017.07
2022-11-03T08:41:43.193Z,1017.04
2022-11-03T08:43:56.285Z,1017.01
2022-11-03T08:46:17.143Z,1016.99
2022-11-03T08:48:20.441Z,1016.97
2022-11-03T08:50:32.535Z,1016.92
2022-11-03T08:52:44.610Z,1016.83
2022-11-03T08:57:08.804Z,1016.80
2022-11-03T08:59:21.855Z,1016.77
2022-11-03T09:01:33.121Z,1016.76
2022-11-03T09:03:45.123Z,1016.79
2022-11-03T09:05:58.062Z,1016.74
2022-11-03T09:10:24.741Z,1016.72
2022-11-03T09:12:33.375Z,1016.69
2022-11-03T09:14:45.474Z,1016.65
2022-11-03T09:16:57.584Z,1016.62
2022-11-03T09:19:09.643Z,1016.59
2022-11-03T09:21:21.732Z,1016.57
2022-11-03T09:23:33.859Z,1016.47
2022-11-03T09:25:45.938Z,1016.46
2022-11-03T09:27:58.004Z,1016.40
2022-11-03T09:30:14.318Z,1016.37
2022-11-03T09:32:23.675Z,1016.35
2022-11-03T09:34:34.300Z,1016.34
2022-11-03T09:36:52.164Z,1016.33
2022-11-03T09:38:58.435Z,1016.26
2022-11-03T09:41:24.802Z,1016.26
2022-11-03T09:42:11.481Z,1016.25
2022-11-03T09:44:22.564Z,1016.22
2022-11-03T09:46:34.663Z,1016.11
2022-11-03T09:48:46.749Z,1016.02
2022-11-03T09:50:58.864Z,1016.01
2022-11-03T09:53:10.906Z,1015.91
2022-11-03T09:55:23.002Z,1015.89
2022-11-03T09:57:36.565Z,1015.85
2022-11-03T09:59:48.643Z,1015.81
2022-11-03T10:02:00.875Z,1015.78
2022-11-03T10:04:13.810Z,1015.80
2022-11-03T10:06:25.891Z,1015.74
2022-11-03T10:08:37.973Z,1015.74
2022-11-03T10:10:50.068Z,1015.71
2022-11-03T10:13:02.199Z,1015.65
2022-11-03T10:15:14.220Z,1015.66
2022-11-03T10:17:26.301Z,1015.64
2022-11-03T10:19:38.361Z,1015.60
2022-11-03T10:21:50.457Z,1015.55
2022-11-03T10:24:02.562Z,1015.53
2022-11-03T10:26:14.633Z,1015.50
2022-11-03T10:28:26.706Z,1015.45
2022-11-03T10:30:58.088Z,1015.41
2022-11-03T10:32:50.879Z,1015.37
2022-11-03T10:35:02.980Z,1015.33
2022-11-03T10:37:15.378Z,1015.30
2022-11-03T10:39:27.441Z,1015.26
2022-11-03T10:41:39.499Z,1015.28
2022-11-03T10:43:52.422Z,1015.22
2022-11-03T10:46:03.697Z,1015.21
2022-11-03T10:48:15.747Z,1015.15
2022-11-03T10:50:27.816Z,1015.16
2022-11-03T10:52:39.916Z,1015.10
2022-11-03T10:54:51.994Z,1015.12
2022-11-03T10:57:04.119Z,1015.06
2022-11-03T10:59:16.185Z,1015.04
2022-11-03T11:01:28.408Z,1014.98
2022-11-03T11:03:41.369Z,1014.96
2022-11-03T11:05:53.733Z,1014.92
2022-11-03T11:08:05.865Z,1014.92
2022-11-03T11:10:18.902Z,1014.84
2022-11-03T11:12:30.979Z,1014.81
2022-11-03T11:14:44.062Z,1014.80
2022-11-03T11:16:56.130Z,1014.79
2022-11-03T11:19:08.257Z,1014.73
2022-11-03T11:21:20.323Z,1014.70
2022-11-03T11:23:32.373Z,1014.67
2022-11-03T11:25:44.457Z,1014.62
2022-11-03T11:27:58.354Z,1014.50
2022-11-03T11:30:08.639Z,1014.48
2022-11-03T11:32:20.712Z,1014.45
2022-11-03T11:34:32.790Z,1014.46
2022-11-03T11:36:45.901Z,1014.44
2022-11-03T11:38:57.983Z,1014.37
2022-11-03T11:41:10.117Z,1014.40
2022-11-03T11:43:22.997Z,1014.36
2022-11-03T11:45:34.244Z,1014.35
2022-11-03T11:47:46.346Z,1014.30
2022-11-03T11:49:58.412Z,1014.22
2022-11-03T11:52:15.202Z,1014.21
2022-11-03T11:54:22.575Z,1014.12
2022-11-03T11:56:34.659Z,1014.08
2022-11-03T11:58:46.743Z,1014.04
2022-11-03T12:00:58.841Z,1014.02
2022-11-03T12:03:11.333Z,1014.05
2022-11-03T12:05:22.998Z,1013.99
2022-11-03T12:07:35.088Z,1013.94
2022-11-03T12:09:47.229Z,1013.91
2022-11-03T12:12:00.783Z,1013.90
2022-11-03T12:14:11.313Z,1013.89
2022-11-03T12:16:23.407Z,1013.87
2022-11-03T12:18:40.030Z,1013.85
2022-11-03T12:20:49.059Z,1013.82
2022-11-03T12:23:02.146Z,1013.76
2022-11-03T12:25:15.252Z,1013.71
2022-11-03T12:27:27.310Z,1013.64
2022-11-03T12:29:40.369Z,1013.66
2022-11-03T12:31:52.480Z,1013.65
2022-11-03T12:34:04.565Z,1013.63
2022-11-03T12:36:16.637Z,1013.60
2022-11-03T12:38:28.709Z,1013.55
2022-11-03T12:40:40.860Z,1013.53
2022-11-03T12:42:52.875Z,1013.44
2022-11-03T12:45:04.956Z,1013.47
2022-11-03T12:47:19.077Z,1013.43
2022-11-03T12:49:32.092Z,1013.41
2022-11-03T12:51:44.188Z,1013.38
2022-11-03T12:53:56.273Z,1013.31
2022-11-03T12:56:09.349Z,1013.26
2022-11-03T12:58:21.448Z,1013.23
2022-11-03T13:00:33.562Z,1013.18
2022-11-03T13:02:45.717Z,1013.14
2022-11-03T13:04:58.781Z,1013.08
2022-11-03T13:07:10.779Z,1013.10
2022-11-03T13:09:22.895Z,1013.08
2022-11-03T13:11:34.943Z,1013.11
2022-11-03T13:13:47.868Z,1013.07
2022-11-03T13:15:59.141Z,1013.06
2022-11-03T13:18:13.796Z,1013.02
2022-11-03T13:20:23.274Z,1012.97
2022-11-03T13:22:36.345Z,1012.91
2022-11-03T13:24:48.452Z,1012.81
2022-11-03T13:27:00.507Z,1012.81
2022-11-03T13:29:12.591Z,1012.75
2022-11-03T13:31:24.745Z,1012.62
2022-11-03T13:33:36.745Z,1012.54
2022-11-03T13:35:48.960Z,1012.46
2022-11-03T13:38:00.916Z,1012.41
2022-11-03T13:40:35.880Z,1012.31
2022-11-03T13:41:14.107Z,1012.28
2022-11-03T13:43:25.114Z,1012.20
2022-11-03T13:45:37.200Z,1012.16
2022-11-03T13:48:23.171Z,1012.11
2022-11-03T13:51:01.358Z,1012.09
2022-11-03T13:56:25.773Z,1012.01
2022-11-03T14:00:49.699Z,1011.94
2022-11-03T14:05:14.831Z,1011.86
2022-11-03T14:07:26.894Z,1011.81
2022-11-03T14:09:39.176Z,1011.80
2022-11-03T14:11:51.068Z,1011.73
2022-11-03T14:14:03.193Z,1011.74
2022-11-03T14:16:15.595Z,1011.76
2022-11-03T14:18:27.608Z,1011.80
2022-11-03T14:20:39.773Z,1011.79
2022-11-03T14:22:51.772Z,1011.76
2022-11-03T14:25:03.857Z,1011.72
2022-11-03T14:27:16.005Z,1011.73
2022-11-03T14:29:28.997Z,1011.70
2022-11-03T14:31:41.094Z,1011.69
2022-11-03T14:33:54.103Z,1011.66
2022-11-03T14:36:05.235Z,1011.61
2022-11-03T14:38:17.321Z,1011.54
2022-11-03T14:40:29.415Z,1011.40
2022-11-03T14:42:41.515Z,1011.38
2022-11-03T14:47:05.650Z,1011.31
2022-11-03T14:49:17.740Z,1011.31
2022-11-03T14:51:29.792Z,1011.32
2022-11-03T14:53:41.906Z,1011.29
2022-11-03T14:55:53.960Z,1011.23
2022-11-03T14:58:07.332Z,1011.17
2022-11-03T15:00:19.189Z,1011.11
2022-11-03T15:02:34.774Z,1011.05
2022-11-03T15:04:50.340Z,1011.03
2022-11-03T15:07:03.928Z,1010.98
2022-11-03T15:09:17.510Z,1010.99
2022-11-03T15:11:30.070Z,1011.00
2022-11-03T15:13:45.979Z,1010.99
2022-11-03T15:15:54.257Z,1010.90
2022-11-03T15:18:07.330Z,1010.90
2022-11-03T15:20:20.249Z,1010.84
2022-11-03T15:25:44.527Z,1010.70
2022-11-03T15:27:55.613Z,1010.69
2022-11-03T15:30:07.688Z,1010.64
2022-11-03T15:32:19.805Z,1010.61
2022-11-03T15:34:31.862Z,1010.58
2022-11-03T15:36:43.998Z,1010.57
2022-11-03T15:38:56.070Z,1010.52
2022-11-03T15:41:09.000Z,1010.50
2022-11-03T15:43:20.246Z,1010.49
2022-11-03T15:45:32.292Z,1010.45
2022-11-03T15:47:44.380Z,1010.41
2022-11-03T15:49:56.458Z,1010.29
2022-11-03T15:52:08.572Z,1010.23
2022-11-03T15:54:20.638Z,1010.19
2022-11-03T15:56:32.695Z,1010.14
2022-11-03T15:58:44.764Z,1010.03
2022-11-03T16:00:57.758Z,1009.97
2022-11-03T16:03:09.084Z,1009.87
2022-11-03T16:05:25.161Z,1009.86
2022-11-03T16:07:33.151Z,1009.78
2022-11-03T16:09:45.230Z,1009.77
2022-11-03T16:11:57.287Z,1009.70
2022-11-03T16:14:10.383Z,1009.63
2022-11-03T16:16:21.488Z,1009.69
2022-11-03T16:18:33.527Z,1009.65
2022-11-03T16:20:45.614Z,1009.61
2022-11-03T16:22:57.752Z,1009.50
2022-11-03T16:25:12.785Z,1009.50
2022-11-03T16:27:21.876Z,1009.45
2022-11-03T16:29:34.004Z,1009.37
2022-11-03T16:31:46.078Z,1009.35
2022-11-03T16:33:59.102Z,1009.30
2022-11-03T16:36:10.227Z,1009.28
2022-11-03T16:38:23.321Z,1009.27
2022-11-03T16:40:35.678Z,1009.24
2022-11-03T16:42:47.749Z,1009.19
2022-11-03T16:44:59.851Z,1009.21
2022-11-03T16:47:11.915Z,1009.14
2022-11-03T16:49:24.028Z,1009.10
2022-11-03T16:51:36.077Z,1009.11
2022-11-03T16:53:48.148Z,1009.08
2022-11-03T16:56:00.241Z,1009.04
2022-11-03T16:58:12.318Z,1008.99
2022-11-03T17:00:24.445Z,1008.92
2022-11-03T17:02:36.595Z,1008.94
2022-11-03T17:04:48.555Z,1008.92
2022-11-03T17:07:01.632Z,1008.91
2022-11-03T17:09:13.717Z,1008.87
2022-11-03T17:11:25.817Z,1008.89
2022-11-03T17:13:37.861Z,1008.90
2022-11-03T17:15:49.953Z,1008.92
2022-11-03T17:18:02.094Z,1008.90
2022-11-03T17:20:14.116Z,1008.86
2022-11-03T17:22:26.284Z,1008.83
2022-11-03T17:24:38.283Z,1008.75
2022-11-03T17:26:50.909Z,1008.83
2022-11-03T17:29:03.442Z,1008.79
2022-11-03T17:31:15.513Z,1008.73
2022-11-03T17:33:27.615Z,1008.64
2022-11-03T17:35:40.176Z,1008.66
2022-11-03T17:37:51.773Z,1008.64
2022-11-03T17:40:03.863Z,1008.56
2022-11-03T17:42:15.932Z,1008.59
2022-11-03T17:44:28.049Z,1008.54
2022-11-03T17:46:40.104Z,1008.43
2022-11-03T17:48:52.172Z,1008.43
2022-11-03T17:51:04.272Z,1008.36
2022-11-03T17:53:16.343Z,1008.28
2022-11-03T17:55:28.446Z,1008.26
2022-11-03T17:57:40.500Z,1008.22
2022-11-03T17:59:52.579Z,1008.18
2022-11-03T18:02:04.770Z,1008.06
2022-11-03T18:04:16.769Z,1007.96
2022-11-03T18:06:28.878Z,1007.91
2022-11-03T18:08:40.938Z,1007.86
2022-11-03T18:10:54.007Z,1007.76
2022-11-03T18:13:06.079Z,1007.72
2022-11-03T18:15:18.160Z,1007.68
2022-11-03T18:17:30.280Z,1007.64
2022-11-03T18:19:42.327Z,1007.63
2022-11-03T18:21:54.415Z,1007.59
2022-11-03T18:24:06.492Z,1007.51
2022-11-03T18:26:19.556Z,1007.47
2022-11-03T18:28:31.676Z,1007.41
2022-11-03T18:30:43.732Z,1007.25
2022-11-03T18:32:55.800Z,1007.17
2022-11-03T18:35:07.873Z,1007.12
2022-11-03T18:37:20.819Z,1006.97
2022-11-03T18:39:32.569Z,1007.01
2022-11-03T18:41:44.135Z,1006.95
2022-11-03T18:43:56.249Z,1006.88
2022-11-03T18:46:09.296Z,1006.91
2022-11-03T18:48:21.375Z,1006.89
2022-11-03T18:50:34.481Z,1006.77
2022-11-03T18:52:46.530Z,1006.71
2022-11-03T18:54:58.626Z,1006.71
2022-11-03T18:57:10.703Z,1006.65
2022-11-03T18:59:22.780Z,1006.55
2022-11-03T19:01:35.194Z,1006.47
2022-11-03T19:03:46.937Z,1006.45
2022-11-03T19:05:59.045Z,1006.50
2022-11-03T19:08:11.099Z,1006.51
2022-11-03T19:10:23.168Z,1006.55
2022-11-03T19:12:39.047Z,1006.63
2022-11-03T19:14:47.433Z,1006.59
2022-11-03T19:17:21.808Z,1006.57
2022-11-03T19:19:11.494Z,1006.52
2022-11-03T19:21:23.583Z,1006.43
2022-11-03T19:23:35.674Z,1006.38
2022-11-03T19:25:47.737Z,1006.38
2022-11-03T19:27:59.859Z,1006.41
2022-11-03T19:30:11.897Z,1006.39
2022-11-03T19:32:24.010Z,1006.40
2022-11-03T19:34:36.107Z,1006.33
2022-11-03T19:36:48.325Z,1006.29
2022-11-03T19:39:00.355Z,1006.25
2022-11-03T19:41:12.319Z,1006.29
2022-11-03T19:43:24.401Z,1006.28
2022-11-03T19:45:36.521Z,1006.20
2022-11-03T19:48:10.591Z,1006.07
2022-11-03T19:48:49.554Z,1006.05
2022-11-03T19:51:01.646Z,1005.92
2022-11-03T19:53:13.717Z,1005.68
2022-11-03T19:55:25.802Z,1005.44
2022-11-03T19:57:37.907Z,1005.59
2022-11-03T19:59:49.988Z,1005.62
2022-11-03T20:02:02.155Z,1005.57
2022-11-03T20:04:15.052Z,1005.47
2022-11-03T20:06:26.224Z,1005.54
2022-11-03T20:08:39.308Z,1005.55
2022-11-03T20:10:51.393Z,1005.58
2022-11-03T20:13:03.493Z,1005.63
2022-11-03T20:15:15.579Z,1005.60
2022-11-03T20:17:28.643Z,1005.61
2022-11-03T20:19:41.713Z,1005.60
2022-11-03T20:21:53.823Z,1005.56
2022-11-03T20:24:05.908Z,1005.53
2022-11-03T20:26:17.965Z,1005.53
2022-11-03T20:28:30.058Z,1005.50
2022-11-03T20:30:42.124Z,1005.47
2022-11-03T20:32:54.235Z,1005.45
2022-11-03T20:35:06.320Z,1005.42
2022-11-03T20:37:18.944Z,1005.48
2022-11-03T20:39:30.461Z,1005.48
2022-11-03T20:41:42.528Z,1005.46
2022-11-03T20:43:54.621Z,1005.46
2022-11-03T20:46:06.747Z,1005.38
2022-11-03T20:48:18.785Z,1005.34
2022-11-03T20:50:30.867Z,1005.26
2022-11-03T20:52:42.948Z,1005.25
2022-11-03T20:54:56.027Z,1005.32
2022-11-03T20:57:09.124Z,1005.34
2022-11-03T20:59:21.177Z,1005.38
2022-11-03T21:01:33.951Z,1005.33
2022-11-03T21:04:04.363Z,1005.35
2022-11-03T21:04:49.835Z,1005.37
2022-11-03T21:07:09.431Z,1005.33
2022-11-03T21:09:21.508Z,1005.35
2022-11-03T21:11:33.573Z,1005.28
2022-11-03T21:13:45.711Z,1005.21
2022-11-03T21:16:23.063Z,1005.10
2022-11-03T21:18:09.846Z,1005.07
2022-11-03T21:20:21.932Z,1005.02
2022-11-03T21:24:46.127Z,1005.08
2022-11-03T21:26:58.463Z,1005.08
2022-11-03T21:29:10.587Z,1004.99
2022-11-03T21:31:22.645Z,1004.92
2022-11-03T21:33:34.705Z,1004.85
2022-11-03T21:35:47.841Z,1004.78
2022-11-03T21:37:59.863Z,1004.77
2022-11-03T21:40:12.946Z,1004.77
2022-11-03T21:42:25.028Z,1004.77
2022-11-03T21:44:37.109Z,1004.79
2022-11-03T21:46:49.228Z,1004.69
2022-11-03T21:49:01.275Z,1004.65
2022-11-03T21:51:13.364Z,1004.67
2022-11-03T21:53:25.453Z,1004.74
2022-11-03T21:55:37.534Z,1004.72
2022-11-03T21:57:49.640Z,1004.72
2022-11-03T22:00:01.690Z,1004.68
2022-11-03T22:02:13.793Z,1004.74
2022-11-03T22:04:25.860Z,1004.65
2022-11-03T22:06:37.942Z,1004.69
2022-11-03T22:08:50.055Z,1004.71
2022-11-03T22:11:02.106Z,1004.76
2022-11-03T22:13:14.183Z,1004.83
2022-11-03T22:15:26.268Z,1004.75
2022-11-03T22:17:38.366Z,1004.76
2022-11-03T22:19:50.485Z,1004.76
2022-11-03T22:22:03.121Z,1004.73
2022-11-03T22:24:14.935Z,1004.62
2022-11-03T22:26:27.025Z,1004.60
2022-11-03T22:28:39.106Z,1004.57
2022-11-03T22:30:51.205Z,1004.48
2022-11-03T22:33:03.250Z,1004.47
2022-11-03T22:35:16.343Z,1004.41
2022-11-03T22:38:03.831Z,1004.43
2022-11-03T22:40:15.903Z,1004.44
2022-11-03T22:42:27.990Z,1004.40
2022-11-03T22:44:40.060Z,1004.33
2022-11-03T22:46:52.236Z,1004.32
2022-11-03T22:49:04.249Z,1004.33
2022-11-03T22:51:16.335Z,1004.28
2022-11-03T22:53:28.412Z,1004.33
2022-11-03T22:55:41.520Z,1004.27
2022-11-03T22:57:53.621Z,1004.26
2022-11-03T23:00:05.716Z,1004.31
2022-11-03T23:02:18.869Z,1004.34
2022-11-03T23:04:30.827Z,1004.44
2022-11-03T23:06:43.908Z,1004.43
2022-11-03T23:08:56.017Z,1004.40
2022-11-03T23:11:08.096Z,1004.36
2022-11-03T23:13:21.162Z,1004.36
2022-11-03T23:15:33.094Z,1004.32
2022-11-03T23:17:44.332Z,1004.32
2022-11-03T23:19:56.449Z,1004.30
2022-11-03T23:22:08.486Z,1004.29
2022-11-03T23:24:21.422Z,1004.22
2022-11-03T23:26:32.688Z,1004.19
2022-11-03T23:28:44.808Z,1004.21
2022-11-03T23:30:58.852Z,1004.15
2022-11-03T23:33:11.227Z,1004.10
2022-11-03T23:35:24.023Z,1004.07
2022-11-03T23:37:36.139Z,1004.02
2022-11-03T23:39:48.204Z,1003.98
2022-11-03T23:42:00.335Z,1003.91
2022-11-03T23:44:12.358Z,1003.89
2022-11-03T23:46:25.426Z,1004.00
2022-11-03T23:48:37.523Z,1003.99
2022-11-03T23:50:50.573Z,1003.99
2022-11-03T23:53:02.698Z,1003.91
2022-11-03T23:55:14.737Z,1003.84
2022-11-03T23:57:27.813Z,1003.81
2022-11-03T23:59:39.927Z,1003.81
